| time (UTC) | temp F | wind direction | speed MPH | gust MPH | rain 1hr in | rain 24hr in | rain mn in | humidity % | barometer mb |
| 20260504120108 | 52 | 107 | 2.0 | 8.0 | 0.00 | 0.00 | 0.00 | 49 | 1012.1 |
| 20260504110527 | 48 | 311 | 1.0 | 2.0 | 0.00 | 0.00 | 0.00 | 55 | 1012.0 |
| 20260504100525 | 42 | 325 | 0.0 | 2.0 | 0.00 | 0.00 | 0.00 | 69 | 1011.7 |
| 20260504081536 | 37 | 26 | 0.0 | 2.0 | 0.00 | 0.00 | 0.00 | 80 | 1011.4 |
| 20260504081028 | 37 | 336 | 0.0 | 2.0 | 0.00 | 0.00 | 0.00 | 81 | 1011.4 |
| 20260504080524 | 37 | 0 | 0.0 | 2.0 | 0.00 | 0.00 | 0.00 | 81 | 1011.3 |
| 20260504050525 | 38 | 0 | 0.0 | 1.0 | 0.00 | 0.00 | 0.00 | 79 | 1010.9 |
| 20260504050108 | 38 | 0 | 0.0 | 1.0 | 0.00 | 0.00 | 0.00 | 78 | 1011.0 |
| 20260504045524 | 38 | 0 | 0.0 | 2.0 | 0.00 | 0.00 | 0.00 | 78 | 1011.0 |
| 20260504045023 | 38 | 0 | 0.0 | 2.0 | 0.00 | 0.00 | 0.00 | 78 | 1011.0 |
| 20260504044542 | 38 | 152 | 0.0 | 2.0 | 0.00 | 0.00 | 0.00 | 77 | 1011.0 |
| 20260504044024 | 38 | 0 | 0.0 | 2.0 | 0.00 | 0.00 | 0.00 | 77 | 1011.1 |
| 20260504043529 | 39 | 155 | 0.0 | 2.0 | 0.00 | 0.00 | 0.00 | 77 | 1011.1 |
| 20260504043038 | 39 | 0 | 0.0 | 2.0 | 0.00 | 0.00 | 0.00 | 76 | 1011.1 |
| 20260504042525 | 39 | 0 | 0.0 | 2.0 | 0.00 | 0.00 | 0.00 | 74 | 1011.1 |
| 20260504042024 | 39 | 146 | 0.0 | 2.0 | 0.00 | 0.00 | 0.00 | 75 | 1011.0 |
| 20260504041546 | 39 | 0 | 0.0 | 2.0 | 0.00 | 0.00 | 0.00 | 75 | 1010.9 |
| 20260504041025 | 40 | 0 | 0.0 | 2.0 | 0.00 | 0.00 | 0.00 | 74 | 1010.9 |
| 20260504040525 | 40 | 0 | 0.0 | 2.0 | 0.00 | 0.00 | 0.00 | 72 | 1010.9 |
| 20260504040044 | 40 | 0 | 0.0 | 2.0 | 0.00 | 0.00 | 0.00 | 72 | 1011.0 |
| 20260504035525 | 40 | 146 | 0.0 | 2.0 | 0.00 | 0.00 | 0.00 | 72 | 1010.9 |
| 20260504035025 | 40 | 0 | 0.0 | 2.0 | 0.00 | 0.00 | 0.00 | 71 | 1010.9 |
| 20260504034548 | 40 | 0 | 0.0 | 2.0 | 0.00 | 0.00 | 0.00 | 71 | 1011.0 |
| 20260504034030 | 41 | 0 | 0.0 | 2.0 | 0.00 | 0.00 | 0.00 | 69 | 1010.9 |
| 20260504033534 | 41 | 0 | 0.0 | 2.0 | 0.00 | 0.00 | 0.00 | 66 | 1010.8 |
| 20260504033039 | 41 | 146 | 0.0 | 2.0 | 0.00 | 0.00 | 0.00 | 69 | 1010.9 |
| 20260504032525 | 41 | 0 | 0.0 | 2.0 | 0.00 | 0.00 | 0.00 | 69 | 1010.8 |
| 20260504032025 | 41 | 0 | 0.0 | 1.0 | 0.00 | 0.00 | 0.00 | 68 | 1010.8 |
| 20260504031545 | 42 | 0 | 0.0 | 2.0 | 0.00 | 0.00 | 0.00 | 68 | 1010.8 |
| 20260504031024 | 42 | 0 | 0.0 | 2.0 | 0.00 | 0.00 | 0.00 | 67 | 1010.8 |
| 20260504030526 | 42 | 0 | 0.0 | 1.0 | 0.00 | 0.00 | 0.00 | 67 | 1010.8 |
| 20260504030046 | 42 | 147 | 0.0 | 2.0 | 0.00 | 0.00 | 0.00 | 66 | 1010.8 |
| 20260504025530 | 42 | 0 | 0.0 | 2.0 | 0.00 | 0.00 | 0.00 | 64 | 1010.7 |
| 20260504025024 | 42 | 0 | 0.0 | 2.0 | 0.00 | 0.00 | 0.00 | 65 | 1010.8 |
| 20260504024543 | 43 | 0 | 0.0 | 2.0 | 0.00 | 0.00 | 0.00 | 63 | 1010.7 |
| 20260504024029 | 43 | 0 | 0.0 | 1.0 | 0.00 | 0.00 | 0.00 | 63 | 1010.8 |
| 20260504023524 | 43 | 0 | 0.0 | 2.0 | 0.00 | 0.00 | 0.00 | 63 | 1010.9 |
| 20260504023041 | 44 | 0 | 0.0 | 2.0 | 0.00 | 0.00 | 0.00 | 62 | 1010.8 |
| 20260504022526 | 44 | 0 | 0.0 | 2.0 | 0.00 | 0.00 | 0.00 | 60 | 1010.8 |
| 20260504022024 | 45 | 0 | 0.0 | 2.0 | 0.00 | 0.00 | 0.00 | 60 | 1010.7 |
| 20260504021538 | 45 | 0 | 0.0 | 2.0 | 0.00 | 0.00 | 0.00 | 58 | 1010.8 |
| 20260504021024 | 46 | 0 | 1.0 | 2.0 | 0.00 | 0.00 | 0.00 | 54 | 1010.7 |
| 20260504020524 | 46 | 145 | 0.0 | 2.0 | 0.00 | 0.00 | 0.00 | 56 | 1010.6 |
| 20260504020039 | 46 | 134 | 0.0 | 2.0 | 0.00 | 0.00 | 0.00 | 53 | 1010.7 |
| 20260504015525 | 47 | 152 | 1.0 | 2.0 | 0.00 | 0.00 | 0.00 | 52 | 1010.6 |
| 20260504015025 | 47 | 209 | 0.0 | 2.0 | 0.00 | 0.00 | 0.00 | 54 | 1010.6 |
| 20260504014534 | 48 | 0 | 0.0 | 2.0 | 0.00 | 0.00 | 0.00 | 48 | 1010.6 |
| 20260504014026 | 47 | 0 | 0.0 | 2.0 | 0.00 | 0.00 | 0.00 | 50 | 1010.6 |
| 20260504013525 | 48 | 175 | 0.0 | 2.0 | 0.00 | 0.00 | 0.00 | 49 | 1010.7 |
| 20260504013036 | 48 | 151 | 0.0 | 2.0 | 0.00 | 0.00 | 0.00 | 49 | 1010.6 |
| 20260504012525 | 48 | 0 | 0.0 | 2.0 | 0.00 | 0.00 | 0.00 | 49 | 1010.6 |
| 20260504012025 | 48 | 317 | 0.0 | 2.0 | 0.00 | 0.00 | 0.00 | 48 | 1010.6 |
| 20260504011544 | 48 | 325 | 0.0 | 2.0 | 0.00 | 0.00 | 0.00 | 50 | 1010.4 |
| 20260504011024 | 49 | 291 | 0.0 | 2.0 | 0.00 | 0.00 | 0.00 | 47 | 1010.4 |
| 20260504010528 | 49 | 0 | 0.0 | 2.0 | 0.00 | 0.00 | 0.00 | 49 | 1010.2 |
| 20260504010044 | 49 | 0 | 0.0 | 2.0 | 0.00 | 0.00 | 0.00 | 47 | 1010.3 |
| 20260504005525 | 50 | 309 | 0.0 | 2.0 | 0.00 | 0.00 | 0.00 | 49 | 1010.2 |
| 20260504005025 | 50 | 59 | 0.0 | 2.0 | 0.00 | 0.00 | 0.00 | 46 | 1010.1 |
| 20260504004538 | 51 | 346 | 0.0 | 2.0 | 0.00 | 0.00 | 0.00 | 44 | 1010.0 |
| 20260504004026 | 51 | 0 | 0.0 | 2.0 | 0.00 | 0.00 | 0.00 | 44 | 1009.9 |
| 20260504003525 | 52 | 325 | 0.0 | 2.0 | 0.00 | 0.00 | 0.00 | 43 | 1009.8 |
| 20260504003042 | 52 | 0 | 0.0 | 2.0 | 0.00 | 0.00 | 0.00 | 39 | 1009.8 |
| 20260504002525 | 52 | 325 | 1.0 | 2.0 | 0.00 | 0.00 | 0.00 | 39 | 1009.7 |
| 20260504002024 | 52 | 261 | 0.0 | 2.0 | 0.00 | 0.00 | 0.00 | 37 | 1009.7 |
| 20260504001542 | 53 | 0 | 0.0 | 2.0 | 0.00 | 0.00 | 0.00 | 36 | 1009.6 |
| 20260504001023 | 53 | 253 | 0.0 | 2.0 | 0.00 | 0.00 | 0.00 | 35 | 1009.6 |
| 20260504000524 | 53 | 248 | 0.0 | 3.0 | 0.00 | 0.00 | 0.00 | 33 | 1009.5 |
| 20260504000042 | 53 | 0 | 1.0 | 3.0 | 0.00 | 0.00 | 0.00 | 34 | 1009.4 |
| 20260503235525 | 54 | 0 | 0.0 | 2.0 | 0.00 | 0.00 | 0.00 | 33 | 1009.4 |
| 20260503235025 | 54 | 333 | 0.0 | 2.0 | 0.00 | 0.00 | 0.00 | 34 | 1009.4 |
| 20260503234557 | 54 | 331 | 0.0 | 4.0 | 0.00 | 0.00 | 0.00 | 33 | 1009.3 |
| 20260503234028 | 54 | 318 | 0.0 | 5.0 | 0.00 | 0.00 | 0.00 | 32 | 1009.2 |
| 20260503233525 | 54 | 341 | 1.0 | 5.0 | 0.00 | 0.00 | 0.00 | 31 | 1009.2 |
| 20260503233039 | 54 | 312 | 2.0 | 5.0 | 0.00 | 0.00 | 0.00 | 30 | 1009.1 |
| 20260503232527 | 54 | 296 | 0.0 | 2.0 | 0.00 | 0.00 | 0.00 | 32 | 1009.1 |
| 20260503232024 | 54 | 0 | 0.0 | 2.0 | 0.00 | 0.00 | 0.00 | 32 | 1009.0 |
| 20260503231552 | 54 | 9 | 0.0 | 2.0 | 0.00 | 0.00 | 0.00 | 30 | 1009.0 |
| 20260503231026 | 54 | 315 | 1.0 | 9.0 | 0.00 | 0.00 | 0.00 | 30 | 1008.8 |
| 20260503230526 | 54 | 292 | 2.0 | 9.0 | 0.00 | 0.00 | 0.00 | 30 | 1008.9 |
| 20260503230045 | 55 | 315 | 2.0 | 9.0 | 0.00 | 0.00 | 0.00 | 29 | 1008.9 |
| 20260503225529 | 55 | 310 | 2.0 | 8.0 | 0.00 | 0.00 | 0.00 | 29 | 1008.8 |
| 20260503225027 | 55 | 296 | 3.0 | 7.0 | 0.00 | 0.00 | 0.00 | 29 | 1008.7 |
| 20260503224545 | 55 | 333 | 2.0 | 6.0 | 0.00 | 0.00 | 0.00 | 30 | 1008.7 |
| 20260503224027 | 55 | 305 | 1.0 | 4.0 | 0.00 | 0.00 | 0.00 | 30 | 1008.7 |
| 20260503223525 | 55 | 298 | 1.0 | 5.0 | 0.00 | 0.00 | 0.00 | 30 | 1008.7 |
| 20260503223043 | 55 | 313 | 1.0 | 9.0 | 0.00 | 0.00 | 0.00 | 32 | 1008.7 |
| 20260503222524 | 55 | 278 | 3.0 | 9.0 | 0.00 | 0.00 | 0.00 | 30 | 1008.8 |
| 20260503222025 | 55 | 288 | 2.0 | 8.0 | 0.00 | 0.00 | 0.00 | 30 | 1008.7 |
| 20260503221538 | 56 | 313 | 3.0 | 8.0 | 0.00 | 0.00 | 0.00 | 30 | 1008.7 |
| 20260503221023 | 56 | 352 | 2.0 | 7.0 | 0.00 | 0.00 | 0.00 | 30 | 1008.8 |
| 20260503220526 | 56 | 264 | 1.0 | 5.0 | 0.00 | 0.00 | 0.00 | 31 | 1008.8 |
| 20260503220045 | 56 | 321 | 2.0 | 8.0 | 0.00 | 0.00 | 0.00 | 31 | 1008.5 |
| 20260503215522 | 55 | 311 | 3.0 | 11.0 | 0.00 | 0.00 | 0.00 | 31 | 1008.7 |
| 20260503215025 | 55 | 311 | 3.0 | 11.0 | 0.00 | 0.00 | 0.00 | 31 | 1008.8 |
| 20260503214550 | 55 | 311 | 5.0 | 12.0 | 0.00 | 0.00 | 0.00 | 31 | 1008.8 |
| 20260503214025 | 55 | 304 | 6.0 | 12.0 | 0.00 | 0.00 | 0.00 | 30 | 1008.7 |
| 20260503213524 | 56 | 298 | 3.0 | 9.0 | 0.00 | 0.00 | 0.00 | 35 | 1008.6 |
| 20260503213106 | 56 | 31 | 4.0 | 10.0 | 0.00 | 0.00 | 0.00 | 31 | 1008.6 |
| 20260503212523 | 56 | 317 | 3.0 | 11.0 | 0.00 | 0.00 | 0.00 | 33 | 1008.7 |
| 20260503212023 | 55 | 317 | 5.0 | 11.0 | 0.00 | 0.00 | 0.00 | 31 | 1008.5 |
| 20260503211603 | 56 | 306 | 3.0 | 10.0 | 0.00 | 0.00 | 0.00 | 30 | 1008.7 |
| 20260503211026 | 56 | 53 | 2.0 | 10.0 | 0.00 | 0.00 | 0.00 | 32 | 1008.6 |
| 20260503210530 | 56 | 22 | 3.0 | 9.0 | 0.00 | 0.00 | 0.00 | 34 | 1008.6 |
| 20260503210038 | 55 | 319 | 2.0 | 5.0 | 0.00 | 0.00 | 0.00 | 35 | 1008.6 |
| 20260503205526 | 55 | 146 | 1.0 | 8.0 | 0.00 | 0.00 | 0.00 | 34 | 1008.6 |
| 20260503205027 | 54 | 49 | 3.0 | 8.0 | 0.00 | 0.00 | 0.00 | 34 | 1008.7 |
| 20260503204558 | 55 | 317 | 3.0 | 5.0 | 0.00 | 0.00 | 0.00 | 32 | 1008.7 |
| 20260503204022 | 55 | 350 | 2.0 | 14.0 | 0.00 | 0.00 | 0.00 | 34 | 1008.6 |
| 20260503203525 | 55 | 67 | 4.0 | 14.0 | 0.00 | 0.00 | 0.00 | 34 | 1008.6 |
| 20260503203042 | 55 | 306 | 3.0 | 10.0 | 0.00 | 0.00 | 0.00 | 34 | 1008.5 |
| 20260503202523 | 55 | 93 | 2.0 | 10.0 | 0.00 | 0.00 | 0.00 | 34 | 1008.6 |
| 20260503202023 | 55 | 9 | 3.0 | 10.0 | 0.00 | 0.00 | 0.00 | 35 | 1008.8 |
| 20260503201542 | 55 | 338 | 3.0 | 9.0 | 0.00 | 0.00 | 0.00 | 35 | 1008.7 |
| 20260503201023 | 55 | 315 | 2.0 | 12.0 | 0.00 | 0.00 | 0.00 | 36 | 1008.7 |
| 20260503200523 | 54 | 299 | 3.0 | 12.0 | 0.00 | 0.00 | 0.00 | 35 | 1008.7 |
| 20260503200041 | 54 | 313 | 4.0 | 8.0 | 0.00 | 0.00 | 0.00 | 36 | 1008.8 |
| 20260503195523 | 53 | 82 | 2.0 | 14.0 | 0.00 | 0.00 | 0.00 | 38 | 1008.9 |
| 20260503195026 | 52 | 44 | 4.0 | 14.0 | 0.00 | 0.00 | 0.00 | 38 | 1008.9 |
| 20260503194540 | 52 | 311 | 7.0 | 14.0 | 0.00 | 0.00 | 0.00 | 36 | 1009.0 |
| 20260503194026 | 53 | 296 | 4.0 | 11.0 | 0.00 | 0.00 | 0.00 | 36 | 1009.1 |
| 20260503193524 | 53 | 180 | 5.0 | 11.0 | 0.00 | 0.00 | 0.00 | 36 | 1009.1 |
| 20260503193042 | 53 | 311 | 3.0 | 10.0 | 0.00 | 0.00 | 0.00 | 36 | 1009.2 |
| 20260503192523 | 53 | 211 | 3.0 | 11.0 | 0.00 | 0.00 | 0.00 | 39 | 1009.1 |
| 20260503192024 | 52 | 125 | 5.0 | 14.0 | 0.00 | 0.00 | 0.00 | 37 | 1009.1 |
| 20260503191557 | 52 | 277 | 3.0 | 14.0 | 0.00 | 0.00 | 0.00 | 38 | 1009.3 |
| 20260503191025 | 52 | 319 | 5.0 | 12.0 | 0.00 | 0.00 | 0.00 | 36 | 1009.2 |
| 20260503190525 | 52 | 301 | 4.0 | 10.0 | 0.00 | 0.00 | 0.00 | 38 | 1009.3 |
| 20260503190044 | 51 | 109 | 4.0 | 12.0 | 0.00 | 0.00 | 0.00 | 37 | 1009.2 |
| 20260503185526 | 52 | 343 | 1.0 | 12.0 | 0.00 | 0.00 | 0.00 | 37 | 1009.3 |
| 20260503185025 | 52 | 51 | 3.0 | 12.0 | 0.00 | 0.00 | 0.00 | 37 | 1009.3 |
| 20260503184553 | 52 | 277 | 3.0 | 14.0 | 0.00 | 0.00 | 0.00 | 38 | 1009.3 |
| 20260503184026 | 52 | 175 | 4.0 | 14.0 | 0.00 | 0.00 | 0.00 | 36 | 1009.5 |
| 20260503183524 | 52 | 205 | 5.0 | 14.0 | 0.00 | 0.00 | 0.00 | 36 | 1009.3 |
| 20260503183043 | 52 | 317 | 3.0 | 15.0 | 0.00 | 0.00 | 0.00 | 38 | 1009.5 |
| 20260503182524 | 51 | 360 | 5.0 | 15.0 | 0.00 | 0.00 | 0.00 | 37 | 1009.5 |
| 20260503182025 | 51 | 302 | 4.0 | 14.0 | 0.00 | 0.00 | 0.00 | 37 | 1009.5 |
| 20260503181547 | 51 | 259 | 2.0 | 8.0 | 0.00 | 0.00 | 0.00 | 39 | 1009.5 |
| 20260503181025 | 51 | 327 | 3.0 | 9.0 | 0.00 | 0.00 | 0.00 | 39 | 1009.3 |
| 20260503180525 | 50 | 129 | 3.0 | 9.0 | 0.00 | 0.00 | 0.00 | 41 | 1009.3 |
| 20260503180045 | 51 | 332 | 4.0 | 12.0 | 0.00 | 0.00 | 0.00 | 38 | 1009.4 |
| 20260503175525 | 51 | 348 | 3.0 | 12.0 | 0.00 | 0.00 | 0.00 | 40 | 1009.4 |
| 20260503175024 | 50 | 298 | 4.0 | 10.0 | 0.00 | 0.00 | 0.00 | 40 | 1009.4 |
| 20260503174555 | 51 | 287 | 4.0 | 10.0 | 0.00 | 0.00 | 0.00 | 38 | 1009.4 |
| 20260503174024 | 51 | 144 | 2.0 | 11.0 | 0.00 | 0.00 | 0.00 | 38 | 1009.3 |
| 20260503173525 | 51 | 77 | 4.0 | 11.0 | 0.00 | 0.00 | 0.00 | 40 | 1009.4 |
| 20260503173040 | 51 | 329 | 4.0 | 10.0 | 0.00 | 0.00 | 0.00 | 37 | 1009.4 |
| 20260503172523 | 51 | 9 | 3.0 | 12.0 | 0.00 | 0.00 | 0.00 | 38 | 1009.4 |
| 20260503172024 | 50 | 304 | 4.0 | 12.0 | 0.00 | 0.00 | 0.00 | 39 | 1009.5 |
| 20260503171547 | 51 | 304 | 3.0 | 10.0 | 0.00 | 0.00 | 0.00 | 36 | 1009.5 |
| 20260503171029 | 51 | 309 | 3.0 | 10.0 | 0.00 | 0.00 | 0.00 | 38 | 1009.4 |
| 20260503170525 | 51 | 314 | 4.0 | 10.0 | 0.00 | 0.00 | 0.00 | 38 | 1009.4 |
| 20260503150530 | 46 | 304 | 3.0 | 13.0 | 0.00 | 0.00 | 0.00 | 51 | 1009.8 |
| 20260503131025 | 43 | 263 | 2.0 | 8.0 | 0.00 | 0.00 | 0.00 | 62 | 1010.1 |
| 20260503130525 | 43 | 300 | 4.0 | 8.0 | 0.00 | 0.00 | 0.00 | 61 | 1010.1 |